createdAt,value
2022-11-24T00:01:29.534Z,20.04
2022-11-24T00:04:00.051Z,20.04
2022-11-24T00:06:30.041Z,20.01
2022-11-24T00:08:58.873Z,20.03
2022-11-24T00:11:33.290Z,20.04
2022-11-24T00:14:02.276Z,20.03
2022-11-24T00:16:33.733Z,20.01
2022-11-24T00:19:05.059Z,19.99
2022-11-24T00:21:33.365Z,19.98
2022-11-24T00:24:02.256Z,19.96
2022-11-24T00:26:32.698Z,19.92
2022-11-24T00:29:03.522Z,19.88
2022-11-24T00:31:36.942Z,19.86
2022-11-24T00:34:12.242Z,19.84
2022-11-24T00:36:44.533Z,19.82
2022-11-24T00:39:14.974Z,19.78
2022-11-24T00:41:43.346Z,19.75
2022-11-24T00:44:11.544Z,19.74
2022-11-24T00:46:40.567Z,19.76
2022-11-24T00:49:09.516Z,19.78
2022-11-24T00:51:37.696Z,19.76
2022-11-24T00:54:05.936Z,19.75
2022-11-24T00:56:34.051Z,19.73
2022-11-24T00:59:02.236Z,19.70
2022-11-24T01:01:31.273Z,19.66
2022-11-24T01:04:00.650Z,19.62
2022-11-24T01:06:29.819Z,19.56
2022-11-24T01:08:58.527Z,19.52
2022-11-24T01:11:29.708Z,19.50
2022-11-24T01:13:59.697Z,19.46
2022-11-24T01:16:35.347Z,19.44
2022-11-24T01:19:03.519Z,19.41
2022-11-24T01:21:31.719Z,19.38
2022-11-24T01:24:00.286Z,19.36
2022-11-24T01:26:28.258Z,19.34
2022-11-24T01:28:57.676Z,19.32
2022-11-24T01:31:26.908Z,19.30
2022-11-24T01:33:55.564Z,19.26
2022-11-24T01:36:24.148Z,19.25
2022-11-24T01:38:52.329Z,19.24
2022-11-24T01:41:25.712Z,19.23
2022-11-24T01:43:55.347Z,19.23
2022-11-24T01:46:33.895Z,19.24
2022-11-24T01:49:21.977Z,19.22
2022-11-24T01:51:53.227Z,19.23
2022-11-24T01:54:26.011Z,19.22
2022-11-24T01:57:00.737Z,19.22
2022-11-24T01:59:29.272Z,19.20
2022-11-24T02:01:57.851Z,19.18
2022-11-24T02:04:30.909Z,19.17
2022-11-24T02:07:02.077Z,19.15
2022-11-24T02:09:39.445Z,19.15
2022-11-24T02:12:09.252Z,19.15
2022-11-24T02:14:39.169Z,19.14
2022-11-24T02:17:07.754Z,19.11
2022-11-24T02:19:46.883Z,19.07
2022-11-24T02:22:40.237Z,19.04
2022-11-24T02:25:36.250Z,19.01
2022-11-24T02:28:08.763Z,18.99
2022-11-24T02:30:37.517Z,18.97
2022-11-24T02:33:05.899Z,18.95
2022-11-24T02:35:34.696Z,18.92
2022-11-24T02:38:02.979Z,18.89
2022-11-24T02:40:31.664Z,18.87
2022-11-24T02:43:13.725Z,18.84
2022-11-24T02:45:41.940Z,18.81
2022-11-24T02:48:10.117Z,18.79
2022-11-24T02:50:38.300Z,18.76
2022-11-24T02:53:06.473Z,18.74
2022-11-24T02:55:34.649Z,18.71
2022-11-24T02:58:03.341Z,18.69
2022-11-24T03:00:31.621Z,18.65
2022-11-24T03:02:59.719Z,18.62
2022-11-24T03:05:28.386Z,18.59
2022-11-24T03:07:56.617Z,18.57
2022-11-24T03:10:25.050Z,18.54
2022-11-24T03:12:54.376Z,18.51
2022-11-24T03:15:23.657Z,18.49
2022-11-24T03:17:54.997Z,18.49
2022-11-24T03:20:23.496Z,18.50
2022-11-24T03:22:51.983Z,18.49
2022-11-24T03:25:20.569Z,18.49
2022-11-24T03:27:49.667Z,18.48
2022-11-24T03:30:17.947Z,18.46
2022-11-24T03:32:46.645Z,18.44
2022-11-24T03:35:14.816Z,18.41
2022-11-24T03:37:42.892Z,18.38
2022-11-24T03:40:11.582Z,18.36
2022-11-24T03:42:40.688Z,18.33
2022-11-24T03:45:38.004Z,18.31
2022-11-24T03:47:57.301Z,18.31
2022-11-24T03:50:25.588Z,18.31
2022-11-24T03:52:54.022Z,18.30
2022-11-24T03:55:22.251Z,18.30
2022-11-24T03:57:50.526Z,18.30
2022-11-24T04:00:18.604Z,18.29
2022-11-24T04:02:46.797Z,18.28
2022-11-24T04:05:15.470Z,18.26
2022-11-24T04:07:43.617Z,18.24
2022-11-24T04:10:12.340Z,18.23
2022-11-24T04:12:40.517Z,18.24
2022-11-24T04:15:09.004Z,18.23
2022-11-24T04:17:37.181Z,18.21
2022-11-24T04:20:06.282Z,18.21
2022-11-24T04:22:34.253Z,18.21
2022-11-24T04:25:03.659Z,18.21
2022-11-24T04:27:36.348Z,18.21
2022-11-24T04:30:06.386Z,18.22
2022-11-24T04:32:35.056Z,18.23
2022-11-24T04:35:04.285Z,18.23
2022-11-24T04:37:33.045Z,18.24
2022-11-24T04:40:01.129Z,18.25
2022-11-24T04:42:29.301Z,18.27
2022-11-24T04:44:57.477Z,18.26
2022-11-24T04:47:27.221Z,18.27
2022-11-24T04:49:55.471Z,18.24
2022-11-24T04:52:24.908Z,18.22
2022-11-24T04:54:53.182Z,18.17
2022-11-24T04:57:27.413Z,18.15
2022-11-24T04:59:55.554Z,18.12
2022-11-24T05:02:23.938Z,18.10
2022-11-24T05:04:52.713Z,18.07
2022-11-24T05:07:20.864Z,18.05
2022-11-24T05:09:59.396Z,18.03
2022-11-24T05:12:28.520Z,18.01
2022-11-24T05:15:00.067Z,17.99
2022-11-24T05:17:39.203Z,17.97
2022-11-24T05:20:08.199Z,17.95
2022-11-24T05:22:36.276Z,17.92
2022-11-24T05:25:05.069Z,17.89
2022-11-24T05:27:33.352Z,17.86
2022-11-24T05:30:01.526Z,17.82
2022-11-24T05:32:29.997Z,17.78
2022-11-24T05:34:58.399Z,17.73
2022-11-24T05:37:29.238Z,17.69
2022-11-24T05:39:57.724Z,17.65
2022-11-24T05:42:25.932Z,17.63
2022-11-24T05:44:54.200Z,17.61
2022-11-24T05:47:23.175Z,17.58
2022-11-24T05:49:51.362Z,17.57
2022-11-24T05:52:19.739Z,17.55
2022-11-24T05:54:48.325Z,17.54
2022-11-24T05:57:19.507Z,17.52
2022-11-24T05:59:48.060Z,17.51
2022-11-24T06:02:16.330Z,17.51
2022-11-24T06:04:44.829Z,17.49
2022-11-24T06:07:13.868Z,17.49
2022-11-24T06:09:42.419Z,17.47
2022-11-24T06:12:12.024Z,17.45
2022-11-24T06:14:40.742Z,17.42
2022-11-24T06:17:10.687Z,17.39
2022-11-24T06:19:42.035Z,17.35
2022-11-24T06:22:10.879Z,17.33
2022-11-24T06:24:39.059Z,17.32
2022-11-24T06:27:07.233Z,17.32
2022-11-24T06:29:35.309Z,17.32
2022-11-24T06:32:04.277Z,17.33
2022-11-24T06:34:32.767Z,17.35
2022-11-24T06:37:01.790Z,17.37
2022-11-24T06:39:30.175Z,17.38
2022-11-24T06:41:59.071Z,17.40
2022-11-24T06:44:27.569Z,17.41
2022-11-24T06:46:56.144Z,17.43
2022-11-24T06:49:24.534Z,17.45
2022-11-24T06:51:55.097Z,17.46
2022-11-24T06:54:23.332Z,17.47
2022-11-24T06:56:56.865Z,17.48
2022-11-24T06:59:25.614Z,17.50
2022-11-24T07:01:54.211Z,17.51
2022-11-24T07:04:22.800Z,17.54
2022-11-24T07:06:50.976Z,17.57
2022-11-24T07:09:19.360Z,17.59
2022-11-24T07:11:47.947Z,17.62
2022-11-24T07:14:16.033Z,17.66
2022-11-24T07:16:44.251Z,17.71
2022-11-24T07:19:12.585Z,17.75
2022-11-24T07:21:40.766Z,17.80
2022-11-24T07:24:10.377Z,17.85
2022-11-24T07:26:38.758Z,18.03
2022-11-24T07:29:06.935Z,18.68
2022-11-24T07:31:35.295Z,19.82
2022-11-24T07:34:03.810Z,21.36
2022-11-24T07:36:31.886Z,22.96
2022-11-24T07:39:00.279Z,24.45
2022-11-24T07:41:28.529Z,25.60
2022-11-24T07:43:56.723Z,26.25
2022-11-24T07:46:25.477Z,26.65
2022-11-24T07:48:53.992Z,27.23
2022-11-24T07:51:22.078Z,28.16
2022-11-24T07:53:50.258Z,29.29
2022-11-24T07:56:18.534Z,30.47
2022-11-24T07:58:52.517Z,31.65
2022-11-24T08:01:21.320Z,32.65
2022-11-24T08:03:49.978Z,33.06
2022-11-24T08:06:29.041Z,32.96
2022-11-24T08:09:00.748Z,32.94
2022-11-24T08:11:29.111Z,33.47
2022-11-24T08:13:58.620Z,34.37
2022-11-24T08:16:27.249Z,35.38
2022-11-24T08:18:56.400Z,36.33
2022-11-24T08:21:25.400Z,37.27
2022-11-24T08:23:57.667Z,38.11
2022-11-24T08:26:26.557Z,38.86
2022-11-24T08:28:57.705Z,39.46
2022-11-24T08:31:27.921Z,39.87
2022-11-24T08:33:56.254Z,40.37
2022-11-24T08:36:24.497Z,40.97
2022-11-24T08:38:57.785Z,41.60
2022-11-24T08:41:27.088Z,42.16
2022-11-24T08:43:56.082Z,42.70
2022-11-24T08:46:25.161Z,43.20
2022-11-24T08:48:55.520Z,43.58
2022-11-24T08:51:26.422Z,43.88
2022-11-24T08:54:00.018Z,44.25
2022-11-24T08:56:30.585Z,44.74
2022-11-24T08:58:59.923Z,45.19
2022-11-24T09:01:28.895Z,45.53
2022-11-24T09:03:57.873Z,45.83
2022-11-24T09:06:28.826Z,45.99
2022-11-24T09:08:57.999Z,45.94
2022-11-24T09:11:26.934Z,45.74
2022-11-24T09:13:56.061Z,45.37
2022-11-24T09:16:27.926Z,44.84
2022-11-24T09:19:01.484Z,44.23
2022-11-24T09:21:32.020Z,43.68
2022-11-24T09:24:00.503Z,42.87
2022-11-24T09:26:31.161Z,42.06
2022-11-24T09:29:00.443Z,41.38
2022-11-24T09:31:32.333Z,40.76
2022-11-24T09:34:02.034Z,40.08
2022-11-24T09:36:30.300Z,39.20
2022-11-24T09:38:59.302Z,38.02
2022-11-24T09:41:54.594Z,36.84
2022-11-24T09:44:57.565Z,35.93
2022-11-24T09:47:44.470Z,35.94
2022-11-24T09:50:37.434Z,36.34
2022-11-24T09:53:24.129Z,36.86
2022-11-24T09:55:56.497Z,37.47
2022-11-24T09:58:40.461Z,37.73
2022-11-24T10:01:14.452Z,38.02
2022-11-24T10:03:45.242Z,38.56
2022-11-24T10:06:22.725Z,39.08
2022-11-24T10:09:06.207Z,39.41
2022-11-24T10:11:44.811Z,39.80
2022-11-24T10:14:42.456Z,40.03
2022-11-24T10:17:16.783Z,40.04
2022-11-24T10:19:51.605Z,40.24
2022-11-24T10:22:38.820Z,40.45
2022-11-24T10:25:19.074Z,40.64
2022-11-24T10:28:03.009Z,40.73
2022-11-24T10:30:31.715Z,40.88
2022-11-24T10:33:20.769Z,41.05
2022-11-24T10:36:06.652Z,41.33
2022-11-24T10:39:03.777Z,41.48
2022-11-24T10:41:57.026Z,41.69
2022-11-24T10:44:25.859Z,41.74
2022-11-24T10:46:54.259Z,41.72
2022-11-24T10:49:27.573Z,41.85
2022-11-24T10:52:16.707Z,42.03
2022-11-24T10:54:59.845Z,42.17
2022-11-24T10:57:36.723Z,42.25
2022-11-24T11:00:24.788Z,42.33
2022-11-24T11:03:12.649Z,42.44
2022-11-24T11:05:44.978Z,42.49
2022-11-24T11:08:32.295Z,42.58
2022-11-24T11:11:12.754Z,42.51
2022-11-24T11:13:48.607Z,42.55
2022-11-24T11:16:26.998Z,42.63
2022-11-24T11:18:55.298Z,42.68
2022-11-24T11:21:34.221Z,42.77
2022-11-24T11:24:22.150Z,42.81
2022-11-24T11:27:00.462Z,42.80
2022-11-24T11:35:14.138Z,42.49
2022-11-24T11:37:44.443Z,42.32
2022-11-24T11:40:17.841Z,41.98
2022-11-24T11:43:08.058Z,41.17
2022-11-24T11:45:41.763Z,39.99
2022-11-24T11:48:40.657Z,38.51
2022-11-24T11:51:30.283Z,36.75
2022-11-24T11:54:08.126Z,35.30
2022-11-24T11:56:43.419Z,34.07
2022-11-24T11:59:24.072Z,32.93
2022-11-24T12:02:22.013Z,31.75
2022-11-24T12:05:25.003Z,30.62
2022-11-24T12:08:20.695Z,29.75
2022-11-24T12:10:55.330Z,29.08
2022-11-24T12:13:43.291Z,28.51
2022-11-24T12:16:39.685Z,28.08
2022-11-24T12:19:14.109Z,27.80
2022-11-24T12:21:55.303Z,27.56
2022-11-24T12:24:40.885Z,27.38
2022-11-24T12:27:24.277Z,27.15
2022-11-24T12:29:58.408Z,27.05
2022-11-24T12:32:45.502Z,27.02
2022-11-24T12:35:26.572Z,26.91
2022-11-24T12:38:40.425Z,26.82
2022-11-24T12:44:36.015Z,26.54
2022-11-24T12:47:17.584Z,26.34
2022-11-24T12:50:02.381Z,26.20
2022-11-24T12:52:38.297Z,26.14
2022-11-24T12:55:16.475Z,26.05
2022-11-24T12:58:09.316Z,25.94
2022-11-24T13:00:55.430Z,25.85
2022-11-24T13:03:58.093Z,25.74
2022-11-24T13:06:49.423Z,25.64
2022-11-24T13:09:18.280Z,25.51
2022-11-24T13:11:50.499Z,25.46
2022-11-24T13:14:21.305Z,25.53
2022-11-24T13:17:29.044Z,25.57
2022-11-24T13:19:48.770Z,25.49
2022-11-24T13:22:24.622Z,25.49
2022-11-24T13:25:16.543Z,25.55
2022-11-24T13:27:48.246Z,25.55
2022-11-24T13:30:53.719Z,25.58
2022-11-24T13:33:33.050Z,25.61
2022-11-24T13:36:04.413Z,25.57
2022-11-24T13:38:52.205Z,25.47
2022-11-24T13:41:32.389Z,25.38
2022-11-24T13:44:16.245Z,25.38
2022-11-24T13:47:31.684Z,25.40
2022-11-24T13:50:01.433Z,25.45
2022-11-24T13:52:39.091Z,25.52
2022-11-24T13:55:13.931Z,25.60
2022-11-24T13:58:14.130Z,25.59
2022-11-24T14:01:02.979Z,25.54
2022-11-24T14:04:32.915Z,25.44
2022-11-24T14:07:09.180Z,25.21
2022-11-24T14:09:42.628Z,25.05
2022-11-24T14:12:18.174Z,25.01
2022-11-24T14:14:48.782Z,25.04
2022-11-24T14:17:27.975Z,25.09
2022-11-24T14:19:58.291Z,25.08
2022-11-24T14:22:39.172Z,25.02
2022-11-24T14:25:23.169Z,25.01
2022-11-24T14:27:51.849Z,25.05
2022-11-24T14:30:23.115Z,25.10
2022-11-24T14:32:59.951Z,25.09
2022-11-24T14:35:35.250Z,25.02
2022-11-24T14:38:05.912Z,24.91
2022-11-24T14:40:46.143Z,24.88
2022-11-24T14:43:23.397Z,24.85
2022-11-24T14:45:58.396Z,24.84
2022-11-24T14:48:29.854Z,24.77
2022-11-24T14:51:23.241Z,24.69
2022-11-24T14:53:54.559Z,24.64
2022-11-24T14:56:35.007Z,24.62
2022-11-24T14:59:05.071Z,24.60
2022-11-24T15:01:34.923Z,24.55
2022-11-24T15:04:26.936Z,24.46
2022-11-24T15:07:12.371Z,24.38
2022-11-24T15:09:52.548Z,24.31
2022-11-24T15:12:39.209Z,24.24
2022-11-24T15:15:23.268Z,24.16
2022-11-24T15:17:57.433Z,24.08
2022-11-24T15:20:40.300Z,24.02
2022-11-24T15:23:20.782Z,23.96
2022-11-24T15:25:51.116Z,23.87
2022-11-24T15:28:19.368Z,23.79
2022-11-24T15:30:47.448Z,23.69
2022-11-24T15:33:19.920Z,23.60
2022-11-24T15:35:48.300Z,23.53
2022-11-24T15:38:16.785Z,23.49
2022-11-24T15:40:47.744Z,23.44
2022-11-24T15:43:22.162Z,23.32
2022-11-24T15:45:50.332Z,23.21
2022-11-24T15:48:18.680Z,23.12
2022-11-24T15:50:48.428Z,23.03
2022-11-24T15:53:21.826Z,22.97
2022-11-24T15:55:50.619Z,22.87
2022-11-24T15:58:18.907Z,22.83
2022-11-24T16:00:47.348Z,22.80
2022-11-24T16:03:45.883Z,22.75
2022-11-24T16:06:03.896Z,22.68
2022-11-24T16:08:32.276Z,22.64
2022-11-24T16:11:00.457Z,22.58
2022-11-24T16:13:28.622Z,22.49
2022-11-24T16:15:57.026Z,22.40
2022-11-24T16:18:25.297Z,22.29
2022-11-24T16:20:53.695Z,22.19
2022-11-24T16:23:21.968Z,22.13
2022-11-24T16:25:50.141Z,22.07
2022-11-24T16:28:18.424Z,21.99
2022-11-24T16:30:50.632Z,21.87
2022-11-24T16:33:18.870Z,21.81
2022-11-24T16:35:48.177Z,21.76
2022-11-24T16:38:17.711Z,21.71
2022-11-24T16:40:51.800Z,21.62
2022-11-24T16:43:20.324Z,21.50
2022-11-24T16:46:03.643Z,21.38
2022-11-24T16:48:36.290Z,21.29
2022-11-24T16:51:09.369Z,21.20
2022-11-24T16:53:38.476Z,21.16
2022-11-24T16:56:07.474Z,21.11
2022-11-24T16:58:40.865Z,21.05
2022-11-24T17:01:12.690Z,20.98
2022-11-24T17:03:41.639Z,20.91
2022-11-24T17:06:13.808Z,20.88
2022-11-24T17:08:43.605Z,20.82
2022-11-24T17:11:13.651Z,20.76
2022-11-24T17:13:43.221Z,20.71
2022-11-24T17:16:16.134Z,20.66
2022-11-24T17:18:45.023Z,20.63
2022-11-24T17:21:15.874Z,20.60
2022-11-24T17:23:44.358Z,20.58
2022-11-24T17:26:14.744Z,20.53
2022-11-24T17:28:43.877Z,20.50
2022-11-24T17:31:23.938Z,20.47
2022-11-24T17:33:55.036Z,20.44
2022-11-24T17:36:23.664Z,20.44
2022-11-24T17:38:52.149Z,20.44
2022-11-24T17:41:21.549Z,20.45
2022-11-24T17:43:55.113Z,20.45
2022-11-24T17:46:24.312Z,20.45
2022-11-24T17:48:52.639Z,20.46
2022-11-24T17:51:23.580Z,20.45
2022-11-24T17:53:53.708Z,20.44
2022-11-24T17:56:24.476Z,20.44
2022-11-24T17:59:00.498Z,20.44
2022-11-24T18:01:29.358Z,20.44
2022-11-24T18:03:58.794Z,20.43
2022-11-24T18:06:27.500Z,20.43
2022-11-24T18:08:57.508Z,20.42
2022-11-24T18:11:31.756Z,20.42
2022-11-24T18:14:03.375Z,20.41
2022-11-24T18:16:34.449Z,20.41
2022-11-24T18:19:09.329Z,20.41
2022-11-24T18:21:41.931Z,20.40
2022-11-24T18:24:11.841Z,20.38
2022-11-24T18:26:41.513Z,20.37
2022-11-24T18:29:11.175Z,20.36
2022-11-24T18:31:39.842Z,20.35
2022-11-24T18:34:08.354Z,20.33
2022-11-24T18:36:37.282Z,20.31
2022-11-24T18:39:07.684Z,20.29
2022-11-24T18:41:36.774Z,20.28
2022-11-24T18:44:04.826Z,20.27
2022-11-24T18:46:33.234Z,20.23
2022-11-24T18:49:01.678Z,20.21
2022-11-24T18:51:30.308Z,20.20
2022-11-24T18:53:58.590Z,20.17
2022-11-24T18:56:27.209Z,20.16
2022-11-24T18:58:58.744Z,20.15
2022-11-24T19:01:29.075Z,20.13
2022-11-24T19:03:59.262Z,20.10
2022-11-24T19:06:33.597Z,20.05
2022-11-24T19:09:08.336Z,20.02
2022-11-24T19:11:39.062Z,19.98
2022-11-24T19:14:09.502Z,19.94
2022-11-24T19:16:37.760Z,19.91
2022-11-24T19:19:05.957Z,19.87
2022-11-24T19:21:36.387Z,19.83
2022-11-24T19:24:06.076Z,19.79
2022-11-24T19:26:34.692Z,19.75
2022-11-24T19:29:04.813Z,19.71
2022-11-24T19:31:34.111Z,19.67
2022-11-24T19:34:02.998Z,19.64
2022-11-24T19:36:32.342Z,19.59
2022-11-24T19:39:00.460Z,19.55
2022-11-24T19:41:31.024Z,19.50
2022-11-24T19:44:00.122Z,19.44
2022-11-24T19:46:29.840Z,19.41
2022-11-24T19:49:02.409Z,19.36
2022-11-24T19:51:33.169Z,19.33
2022-11-24T19:54:03.379Z,19.30
2022-11-24T19:56:34.158Z,19.26
2022-11-24T19:59:04.540Z,19.23
2022-11-24T20:01:35.594Z,19.21
2022-11-24T20:04:08.899Z,19.19
2022-11-24T20:06:39.473Z,19.17
2022-11-24T20:09:10.465Z,19.12
2022-11-24T20:11:39.552Z,19.09
2022-11-24T20:14:11.252Z,19.04
2022-11-24T20:16:40.090Z,19.01
2022-11-24T20:19:14.890Z,18.98
2022-11-24T20:21:43.938Z,18.97
2022-11-24T20:24:18.318Z,18.93
2022-11-24T20:26:49.504Z,18.90
2022-11-24T20:29:18.875Z,18.87
2022-11-24T20:31:49.871Z,18.86
2022-11-24T20:34:18.026Z,18.88
2022-11-24T20:36:47.749Z,18.91
2022-11-24T20:39:20.424Z,18.92
2022-11-24T20:41:48.911Z,18.94
2022-11-24T20:44:18.537Z,18.94
2022-11-24T20:46:48.441Z,18.96
2022-11-24T20:49:19.512Z,18.95
2022-11-24T20:51:47.741Z,18.91
2022-11-24T20:54:18.214Z,18.86
2022-11-24T20:56:47.907Z,18.82
2022-11-24T20:59:21.939Z,18.77
2022-11-24T21:01:51.462Z,18.75
2022-11-24T21:04:22.785Z,18.74
2022-11-24T21:06:51.061Z,18.73
2022-11-24T21:09:19.434Z,18.72
2022-11-24T21:11:49.147Z,18.70
2022-11-24T21:14:17.299Z,18.67
2022-11-24T21:16:45.849Z,18.64
2022-11-24T21:19:15.679Z,18.61
2022-11-24T21:21:44.593Z,18.58
2022-11-24T21:24:18.232Z,18.56
2022-11-24T21:26:47.160Z,18.53
2022-11-24T21:29:16.952Z,18.51
2022-11-24T21:31:45.794Z,18.51
2022-11-24T21:34:16.856Z,18.51
2022-11-24T21:36:45.796Z,18.50
2022-11-24T21:39:15.230Z,18.47
2022-11-24T21:41:43.673Z,18.46
2022-11-24T21:44:13.562Z,18.46
2022-11-24T21:46:49.351Z,18.45
2022-11-24T21:49:19.355Z,18.44
2022-11-24T21:51:48.168Z,18.44
2022-11-24T21:54:16.321Z,18.44
2022-11-24T21:56:44.497Z,18.45
2022-11-24T21:59:12.678Z,18.43
2022-11-24T22:01:40.933Z,18.42
2022-11-24T22:04:09.856Z,18.42
2022-11-24T22:06:38.237Z,18.39
2022-11-24T22:09:06.618Z,18.36
2022-11-24T22:11:34.899Z,18.30
2022-11-24T22:14:02.975Z,18.26
2022-11-24T22:16:31.060Z,18.34
2022-11-24T22:19:00.386Z,18.31
2022-11-24T22:21:28.741Z,18.23
2022-11-24T22:23:57.130Z,18.16
2022-11-24T22:26:27.176Z,18.09
2022-11-24T22:28:57.473Z,18.05
2022-11-24T22:31:33.565Z,18.01
2022-11-24T22:34:02.421Z,17.98
2022-11-24T22:36:30.915Z,17.97
2022-11-24T22:39:02.276Z,17.95
2022-11-24T22:41:33.521Z,17.94
2022-11-24T22:44:02.808Z,17.93
2022-11-24T22:46:31.981Z,17.91
2022-11-24T22:49:01.321Z,17.90
2022-11-24T22:51:32.260Z,17.90
2022-11-24T22:54:03.025Z,17.87
2022-11-24T22:56:32.364Z,17.84
2022-11-24T22:59:02.143Z,17.82
2022-11-24T23:01:32.184Z,17.80
2022-11-24T23:04:00.969Z,17.77
2022-11-24T23:06:31.593Z,17.73
2022-11-24T23:09:01.407Z,17.69
2022-11-24T23:11:38.633Z,17.66
2022-11-24T23:14:12.851Z,17.64
2022-11-24T23:16:41.514Z,17.62
2022-11-24T23:19:10.155Z,17.62
2022-11-24T23:21:39.305Z,17.62
2022-11-24T23:24:08.665Z,17.61
2022-11-24T23:26:40.834Z,17.59
2022-11-24T23:29:11.267Z,17.55
2022-11-24T23:31:39.500Z,17.52
2022-11-24T23:34:08.128Z,17.50
2022-11-24T23:36:36.524Z,17.50
2022-11-24T23:39:11.579Z,17.50
2022-11-24T23:41:39.829Z,17.50
2022-11-24T23:44:08.210Z,17.50
2022-11-24T23:46:37.415Z,17.49
2022-11-24T23:49:05.490Z,17.47
2022-11-24T23:51:33.977Z,17.47
2022-11-24T23:54:02.800Z,17.45
2022-11-24T23:56:32.783Z,17.44
2022-11-24T23:59:04.035Z,17.42
